メインページ
METAR-TAF:

METAR-TAF

空港 :

モントリオール・ミラベル国際空港

モントリオール・ミラベル, ケベック州, カナダ

緯度: 45-41N, 経度: 074-02W, 海抜: 82m

現時点の気象観測

当レポートは33分前の10:00(UTC)に作成
変向風 2kt
気温 -14°C
湿度 72%
気圧 1013 hPa
視程: 40.2km
高度10000ftの千切れ雲あり

METAR: CYMX 231000Z VRB02KT 25SM BKN100 M14/M18 A2992 RMK AC5 SLP141

時間: 05:33 (10:33 UTC)

予報

当レポートは4時間54分前の05:39(UTC)に作成
予報は23日の 06時(UTC)から 24日の 06時(UTC)まで有効
西の風 5kt
視程: 10km
高度2000ftの雲はほとんどない
高度5000ftの雲は散在している
23日の 06時(UTC)から 23日の 13時(UTC)まで一時的に
視程: 10km
高度2000ftの千切れ雲あり
高度5000ftの千切れ雲あり
小雪
23日の 1300時(UTC)から
西/北西の風 8kt、最大18ktの突風を伴う
視程: 10km
高度2000ftの雲は散在している
高度4000ftの千切れ雲あり
23日の 22時(UTC)から 23日の 24時(UTC)まで徐々に
西の風 8kt
24日の 0500時(UTC)から
西の風 7kt
視程: 10km
高度2000ftの雲はほとんどない

TAF: CYMX 230539Z 2306/2406 27005KT P6SM FEW020 SCT050 TEMPO 2306/2313 P6SM -SN BKN020 BKN050 FM231300 29008G18KT P6SM SCT020 BKN040 BECMG 2322/2324 27008KT FM240500 27007KT P6SM FEW020 RMK NXT FCST BY 231200Z

4,000以上の空港の気象観測と天気予報(METAR報とTAF報)

利用可能な観測所は地図上に黄色い丸と赤い丸で示す。

丸の上にカーソルを重ねると観測所名を参照できる。

次にクリックすると気象観測と天気予報を参照できる。

マップの切り替え:黒色「×」印の緑ボタンをクリックして拡大、「-」印の緑ボタンをクリックして縮小、緑色の三角印をクリックして隣りの地図に切り替え


METAR-TAF: